メインページ
METAR-TAF:

METAR-TAF

空港 :

北宇都宮駐屯地

宇都宮, 日本

緯度: 36-31N, 経度: 139-52E, 海抜: 102m

現時点の気象観測

当レポートは5時間27分前の06:42(UTC)に作成
の風 3kt
気温 20°C
湿度 56%
気圧 1013 hPa
視程10km以上
高度4000ftの雲はほとんどない
高度12000ftの千切れ雲あり
高度20000ftの千切れ雲あり

METAR: RJTU 160642Z 08003KT 9999 FEW040 BKN120 BKN200 20/11 Q1013 RMK 1SC040 5AC120 6CI200 A2992

時間: 21:09 (12:09 UTC)


TAF: 見つかりません

4,000以上の空港の気象観測と天気予報(METAR報とTAF報)

利用可能な観測所は地図上に黄色い丸と赤い丸で示す。

丸の上にカーソルを重ねると観測所名を参照できる。

次にクリックすると気象観測と天気予報を参照できる。

マップの切り替え:黒色「×」印の緑ボタンをクリックして拡大、「-」印の緑ボタンをクリックして縮小、緑色の三角印をクリックして隣りの地図に切り替え


METAR-TAF: